Aérodrome :
LOGIN :

S'inscrire | Disclaimer

   EN    FR    IT 

 










Légende :    VFR   VFR Marginal   IFR   IFR Intensif   IFR Très Intensif
Visi : 
Plafond : 
>= 8 km
>= 3000ft
5 à 8 km
1000 à 3000 ft
1500m à 5 km
500 à 1000 ft
800 à 1500m
200 à 500 ft
< 800m
< 200 ft
Symboles :   Orages  Brouillard  Fortes neiges  Fortes précipitations  Vent > 20 kt
SIGMETs :   Divers  Orages  Givrage  Turbulence  Onde Orograph.  Cendres Volcan.







- Altitude de l'aérodrome : 53 ft
- Code IATA : HAM


EDDH - Hamburg

DERNIER METAR :
  • 261720Z 30013KT 9999 FEW020 20/14 Q1023 NOSIG

METARs EXPIRÉS :
  • 261650Z 29015KT 260V320 9999 FEW019 21/15 Q1023 TEMPO 29015G25KT
  • 261620Z 28015KT 9999 FEW020 21/15 Q1023 TEMPO 29015G25KT
  • 261550Z 29015KT 260V320 9999 FEW022 22/15 Q1023 TEMPO 29015G25KT
  • 261520Z 29015KT 260V320 9999 FEW026 23/16 Q1022 TEMPO 29015G25KT

TAF TAF EDDH
Valide du 26 à 18h jusqu'au 28 à 00h UTC


261700Z 2618/2724 30013KT 9999 BKN020
BECMG 2618/2620 30008KT
TEMPO 2618/2707 BKN013
BECMG 2706/2708 30013KT
TEMPO 2709/2717 30015G25KT
BECMG 2718/2720 30007KT
Pas de NOTAMs connus pour ce terrain.



MET'MAP, la Météo Aéronautique d'un coup d'oeil ! - Copyright ORBIFLY Décembre 2007 - Disclaimer

ORBIFLY MET'MAP TEAM :

Programmation & Développement : Alexandra Zaïnal
Conception & Développement : Baudouin d'Aumeries
Co-Programmation & Développement : Marc-Olivier Méhu
Soutien technique & logistique : Manuel Goepfert

Contact : metmap@orbifly.com




SOURCES & CREDITS :

   NOAA